sensor_id;sensor_type;location;lat;lon;timestamp;P1;durP1;ratioP1;P2;durP2;ratioP2
35126;SDS011;21300;52.006;5.798;2023-05-07T00:02:02;8.68;;;5.75;;
35126;SDS011;21300;52.006;5.798;2023-05-07T00:04:28;7.63;;;5.35;;
35126;SDS011;21300;52.006;5.798;2023-05-07T00:07:00;6.75;;;5.05;;
35126;SDS011;21300;52.006;5.798;2023-05-07T00:09:26;9.18;;;5.30;;
35126;SDS011;21300;52.006;5.798;2023-05-07T00:11:52;6.95;;;5.28;;
35126;SDS011;21300;52.006;5.798;2023-05-07T00:14:18;7.63;;;5.43;;
35126;SDS011;21300;52.006;5.798;2023-05-07T00:16:43;5.88;;;5.18;;
35126;SDS011;21300;52.006;5.798;2023-05-07T00:19:09;7.32;;;5.47;;
35126;SDS011;21300;52.006;5.798;2023-05-07T00:21:34;6.78;;;5.07;;
35126;SDS011;21300;52.006;5.798;2023-05-07T00:24:00;6.93;;;5.40;;
35126;SDS011;21300;52.006;5.798;2023-05-07T00:26:26;8.23;;;5.40;;
35126;SDS011;21300;52.006;5.798;2023-05-07T00:28:51;5.82;;;5.18;;
35126;SDS011;21300;52.006;5.798;2023-05-07T00:31:17;7.82;;;5.63;;
35126;SDS011;21300;52.006;5.798;2023-05-07T00:33:42;8.13;;;5.45;;
35126;SDS011;21300;52.006;5.798;2023-05-07T00:36:08;6.10;;;5.50;;
35126;SDS011;21300;52.006;5.798;2023-05-07T00:38:33;6.18;;;5.50;;
35126;SDS011;21300;52.006;5.798;2023-05-07T00:40:59;5.97;;;5.38;;
35126;SDS011;21300;52.006;5.798;2023-05-07T00:43:25;5.78;;;4.78;;
35126;SDS011;21300;52.006;5.798;2023-05-07T00:45:50;5.80;;;5.25;;
35126;SDS011;21300;52.006;5.798;2023-05-07T00:48:16;7.75;;;5.75;;
35126;SDS011;21300;52.006;5.798;2023-05-07T00:50:43;6.20;;;5.47;;
35126;SDS011;21300;52.006;5.798;2023-05-07T00:53:09;7.60;;;5.22;;
35126;SDS011;21300;52.006;5.798;2023-05-07T00:55:35;6.68;;;5.88;;
35126;SDS011;21300;52.006;5.798;2023-05-07T00:58:01;6.53;;;5.35;;
35126;SDS011;21300;52.006;5.798;2023-05-07T01:00:27;6.20;;;5.25;;
35126;SDS011;21300;52.006;5.798;2023-05-07T01:02:53;7.10;;;5.28;;
35126;SDS011;21300;52.006;5.798;2023-05-07T01:05:19;7.10;;;5.70;;
35126;SDS011;21300;52.006;5.798;2023-05-07T01:07:47;5.97;;;5.38;;
35126;SDS011;21300;52.006;5.798;2023-05-07T01:10:13;5.38;;;4.88;;
35126;SDS011;21300;52.006;5.798;2023-05-07T01:12:39;8.40;;;5.57;;
35126;SDS011;21300;52.006;5.798;2023-05-07T01:15:06;6.03;;;4.85;;
35126;SDS011;21300;52.006;5.798;2023-05-07T01:17:34;8.07;;;5.25;;
35126;SDS011;21300;52.006;5.798;2023-05-07T01:20:01;7.00;;;5.68;;
35126;SDS011;21300;52.006;5.798;2023-05-07T01:22:33;10.30;;;5.82;;
35126;SDS011;21300;52.006;5.798;2023-05-07T01:25:01;6.50;;;5.35;;
35126;SDS011;21300;52.006;5.798;2023-05-07T01:27:27;8.60;;;5.93;;
35126;SDS011;21300;52.006;5.798;2023-05-07T01:29:53;6.50;;;5.60;;
35126;SDS011;21300;52.006;5.798;2023-05-07T01:32:21;6.32;;;5.43;;
35126;SDS011;21300;52.006;5.798;2023-05-07T01:35:00;8.98;;;5.55;;
35126;SDS011;21300;52.006;5.798;2023-05-07T01:37:28;7.35;;;5.55;;
35126;SDS011;21300;52.006;5.798;2023-05-07T01:39:54;7.28;;;5.25;;
35126;SDS011;21300;52.006;5.798;2023-05-07T01:42:39;7.40;;;6.43;;
35126;SDS011;21300;52.006;5.798;2023-05-07T01:45:06;7.97;;;6.10;;
35126;SDS011;21300;52.006;5.798;2023-05-07T01:47:32;9.63;;;7.13;;
35126;SDS011;21300;52.006;5.798;2023-05-07T01:49:58;8.85;;;6.63;;
35126;SDS011;21300;52.006;5.798;2023-05-07T01:52:24;8.13;;;7.03;;
35126;SDS011;21300;52.006;5.798;2023-05-07T01:54:50;7.28;;;6.13;;
35126;SDS011;21300;52.006;5.798;2023-05-07T01:57:16;9.48;;;7.15;;
35126;SDS011;21300;52.006;5.798;2023-05-07T01:59:41;9.80;;;8.43;;
35126;SDS011;21300;52.006;5.798;2023-05-07T02:02:07;9.45;;;7.38;;
35126;SDS011;21300;52.006;5.798;2023-05-07T02:04:32;8.70;;;7.78;;
35126;SDS011;21300;52.006;5.798;2023-05-07T02:06:58;9.40;;;8.00;;
35126;SDS011;21300;52.006;5.798;2023-05-07T02:09:23;9.30;;;7.60;;
35126;SDS011;21300;52.006;5.798;2023-05-07T02:11:49;8.30;;;7.50;;
35126;SDS011;21300;52.006;5.798;2023-05-07T02:14:14;11.07;;;8.18;;
35126;SDS011;21300;52.006;5.798;2023-05-07T02:16:40;10.85;;;8.88;;
35126;SDS011;21300;52.006;5.798;2023-05-07T02:19:06;9.02;;;8.18;;
35126;SDS011;21300;52.006;5.798;2023-05-07T02:21:32;10.82;;;8.52;;
35126;SDS011;21300;52.006;5.798;2023-05-07T02:23:57;10.20;;;8.82;;
35126;SDS011;21300;52.006;5.798;2023-05-07T02:26:23;11.45;;;8.40;;
35126;SDS011;21300;52.006;5.798;2023-05-07T02:28:48;11.50;;;9.63;;
35126;SDS011;21300;52.006;5.798;2023-05-07T02:31:14;9.80;;;8.80;;
35126;SDS011;21300;52.006;5.798;2023-05-07T02:33:40;10.63;;;9.48;;
35126;SDS011;21300;52.006;5.798;2023-05-07T02:36:09;12.88;;;8.75;;
35126;SDS011;21300;52.006;5.798;2023-05-07T02:38:35;11.18;;;8.75;;
35126;SDS011;21300;52.006;5.798;2023-05-07T02:41:01;14.27;;;9.45;;
35126;SDS011;21300;52.006;5.798;2023-05-07T02:43:27;11.90;;;8.95;;
35126;SDS011;21300;52.006;5.798;2023-05-07T02:46:02;10.57;;;9.38;;
35126;SDS011;21300;52.006;5.798;2023-05-07T02:48:32;11.05;;;9.25;;
35126;SDS011;21300;52.006;5.798;2023-05-07T02:50:58;12.77;;;9.85;;
35126;SDS011;21300;52.006;5.798;2023-05-07T02:53:24;12.80;;;10.40;;
35126;SDS011;21300;52.006;5.798;2023-05-07T02:55:55;13.77;;;10.07;;
35126;SDS011;21300;52.006;5.798;2023-05-07T02:58:22;11.57;;;10.38;;
35126;SDS011;21300;52.006;5.798;2023-05-07T03:00:47;12.25;;;10.43;;
35126;SDS011;21300;52.006;5.798;2023-05-07T03:03:13;11.70;;;10.45;;
35126;SDS011;21300;52.006;5.798;2023-05-07T03:05:39;12.23;;;9.65;;
35126;SDS011;21300;52.006;5.798;2023-05-07T03:08:04;11.10;;;10.00;;
35126;SDS011;21300;52.006;5.798;2023-05-07T03:10:30;11.35;;;10.25;;
35126;SDS011;21300;52.006;5.798;2023-05-07T03:12:56;12.35;;;11.07;;
35126;SDS011;21300;52.006;5.798;2023-05-07T03:15:21;12.93;;;10.95;;
35126;SDS011;21300;52.006;5.798;2023-05-07T03:17:47;11.45;;;10.25;;
35126;SDS011;21300;52.006;5.798;2023-05-07T03:20:13;11.70;;;10.50;;
35126;SDS011;21300;52.006;5.798;2023-05-07T03:22:39;11.40;;;10.23;;
35126;SDS011;21300;52.006;5.798;2023-05-07T03:25:05;10.93;;;9.82;;
35126;SDS011;21300;52.006;5.798;2023-05-07T03:27:32;11.10;;;9.85;;
35126;SDS011;21300;52.006;5.798;2023-05-07T03:29:57;13.13;;;11.05;;
35126;SDS011;21300;52.006;5.798;2023-05-07T03:32:23;12.65;;;10.93;;
35126;SDS011;21300;52.006;5.798;2023-05-07T03:34:49;13.20;;;11.45;;
35126;SDS011;21300;52.006;5.798;2023-05-07T03:37:15;13.60;;;10.90;;
35126;SDS011;21300;52.006;5.798;2023-05-07T03:39:40;11.65;;;10.45;;
35126;SDS011;21300;52.006;5.798;2023-05-07T03:42:06;12.68;;;10.13;;
35126;SDS011;21300;52.006;5.798;2023-05-07T03:44:32;13.40;;;10.98;;
35126;SDS011;21300;52.006;5.798;2023-05-07T03:46:57;14.18;;;10.88;;
35126;SDS011;21300;52.006;5.798;2023-05-07T03:49:23;12.18;;;10.80;;
35126;SDS011;21300;52.006;5.798;2023-05-07T03:51:48;12.57;;;10.73;;
35126;SDS011;21300;52.006;5.798;2023-05-07T03:54:14;16.38;;;11.57;;
35126;SDS011;21300;52.006;5.798;2023-05-07T03:56:40;13.13;;;10.90;;
35126;SDS011;21300;52.006;5.798;2023-05-07T03:59:05;13.30;;;11.23;;
35126;SDS011;21300;52.006;5.798;2023-05-07T04:01:31;12.93;;;11.35;;
35126;SDS011;21300;52.006;5.798;2023-05-07T04:03:56;16.23;;;10.63;;
35126;SDS011;21300;52.006;5.798;2023-05-07T04:06:22;11.73;;;10.35;;
35126;SDS011;21300;52.006;5.798;2023-05-07T04:08:48;14.18;;;11.20;;
35126;SDS011;21300;52.006;5.798;2023-05-07T04:11:13;14.43;;;11.82;;
35126;SDS011;21300;52.006;5.798;2023-05-07T04:13:39;12.38;;;10.70;;
35126;SDS011;21300;52.006;5.798;2023-05-07T04:16:05;13.68;;;11.93;;
35126;SDS011;21300;52.006;5.798;2023-05-07T04:18:31;14.20;;;12.00;;
35126;SDS011;21300;52.006;5.798;2023-05-07T04:20:57;15.05;;;11.90;;
35126;SDS011;21300;52.006;5.798;2023-05-07T04:23:22;16.42;;;12.48;;
35126;SDS011;21300;52.006;5.798;2023-05-07T04:25:48;14.77;;;12.90;;
35126;SDS011;21300;52.006;5.798;2023-05-07T04:28:13;14.35;;;12.00;;
35126;SDS011;21300;52.006;5.798;2023-05-07T04:30:39;15.25;;;12.55;;
35126;SDS011;21300;52.006;5.798;2023-05-07T04:33:06;16.85;;;13.43;;
35126;SDS011;21300;52.006;5.798;2023-05-07T04:35:32;16.25;;;12.35;;
35126;SDS011;21300;52.006;5.798;2023-05-07T04:37:57;13.90;;;12.23;;
35126;SDS011;21300;52.006;5.798;2023-05-07T04:40:23;17.55;;;13.75;;
35126;SDS011;21300;52.006;5.798;2023-05-07T04:42:48;15.63;;;12.57;;
35126;SDS011;21300;52.006;5.798;2023-05-07T04:45:14;15.45;;;13.68;;
35126;SDS011;21300;52.006;5.798;2023-05-07T04:47:40;16.88;;;13.48;;
35126;SDS011;21300;52.006;5.798;2023-05-07T04:50:09;12.30;;;10.57;;
35126;SDS011;21300;52.006;5.798;2023-05-07T04:52:35;15.10;;;13.50;;
35126;SDS011;21300;52.006;5.798;2023-05-07T04:55:01;18.65;;;14.77;;
35126;SDS011;21300;52.006;5.798;2023-05-07T04:57:27;17.70;;;14.15;;
35126;SDS011;21300;52.006;5.798;2023-05-07T04:59:53;16.52;;;12.95;;
35126;SDS011;21300;52.006;5.798;2023-05-07T05:02:19;15.40;;;13.07;;
35126;SDS011;21300;52.006;5.798;2023-05-07T05:04:44;17.42;;;14.05;;
35126;SDS011;21300;52.006;5.798;2023-05-07T05:07:10;17.30;;;13.38;;
35126;SDS011;21300;52.006;5.798;2023-05-07T05:09:36;15.63;;;13.95;;
35126;SDS011;21300;52.006;5.798;2023-05-07T05:12:01;16.33;;;13.93;;
35126;SDS011;21300;52.006;5.798;2023-05-07T05:14:27;17.15;;;14.38;;
35126;SDS011;21300;52.006;5.798;2023-05-07T05:16:52;16.95;;;15.02;;
35126;SDS011;21300;52.006;5.798;2023-05-07T05:19:18;17.33;;;15.27;;
35126;SDS011;21300;52.006;5.798;2023-05-07T05:21:44;15.90;;;14.15;;
35126;SDS011;21300;52.006;5.798;2023-05-07T05:24:09;18.42;;;16.23;;
35126;SDS011;21300;52.006;5.798;2023-05-07T05:26:35;17.05;;;15.13;;
35126;SDS011;21300;52.006;5.798;2023-05-07T05:29:00;18.40;;;15.65;;
35126;SDS011;21300;52.006;5.798;2023-05-07T05:31:26;17.10;;;15.27;;
35126;SDS011;21300;52.006;5.798;2023-05-07T05:33:52;17.10;;;14.75;;
35126;SDS011;21300;52.006;5.798;2023-05-07T05:36:17;19.13;;;15.13;;
35126;SDS011;21300;52.006;5.798;2023-05-07T05:38:43;17.95;;;15.57;;
35126;SDS011;21300;52.006;5.798;2023-05-07T05:41:09;18.15;;;15.40;;
35126;SDS011;21300;52.006;5.798;2023-05-07T05:43:35;19.45;;;15.38;;
35126;SDS011;21300;52.006;5.798;2023-05-07T05:46:01;18.58;;;15.40;;
35126;SDS011;21300;52.006;5.798;2023-05-07T05:48:28;17.25;;;15.00;;
35126;SDS011;21300;52.006;5.798;2023-05-07T05:50:54;18.50;;;15.10;;
35126;SDS011;21300;52.006;5.798;2023-05-07T05:53:19;17.90;;;15.70;;
35126;SDS011;21300;52.006;5.798;2023-05-07T05:55:45;17.08;;;15.27;;
35126;SDS011;21300;52.006;5.798;2023-05-07T05:58:11;19.00;;;16.25;;
35126;SDS011;21300;52.006;5.798;2023-05-07T06:00:37;18.27;;;16.45;;
35126;SDS011;21300;52.006;5.798;2023-05-07T06:03:02;19.20;;;16.02;;
35126;SDS011;21300;52.006;5.798;2023-05-07T06:05:28;18.65;;;16.75;;
35126;SDS011;21300;52.006;5.798;2023-05-07T06:07:53;17.90;;;16.02;;
35126;SDS011;21300;52.006;5.798;2023-05-07T06:10:19;18.20;;;16.30;;
35126;SDS011;21300;52.006;5.798;2023-05-07T06:12:45;20.30;;;17.33;;
35126;SDS011;21300;52.006;5.798;2023-05-07T06:15:10;17.40;;;15.60;;
35126;SDS011;21300;52.006;5.798;2023-05-07T06:17:36;19.65;;;17.10;;
35126;SDS011;21300;52.006;5.798;2023-05-07T06:20:01;20.73;;;17.55;;
35126;SDS011;21300;52.006;5.798;2023-05-07T06:22:27;20.98;;;17.40;;
35126;SDS011;21300;52.006;5.798;2023-05-07T06:24:53;18.65;;;16.75;;
35126;SDS011;21300;52.006;5.798;2023-05-07T06:27:18;19.77;;;17.30;;
35126;SDS011;21300;52.006;5.798;2023-05-07T06:29:44;21.77;;;17.95;;
35126;SDS011;21300;52.006;5.798;2023-05-07T06:32:10;19.65;;;16.70;;
35126;SDS011;21300;52.006;5.798;2023-05-07T06:34:36;19.08;;;17.05;;
35126;SDS011;21300;52.006;5.798;2023-05-07T06:37:02;20.52;;;18.08;;
35126;SDS011;21300;52.006;5.798;2023-05-07T06:39:28;19.20;;;16.60;;
35126;SDS011;21300;52.006;5.798;2023-05-07T06:41:53;18.83;;;16.15;;
35126;SDS011;21300;52.006;5.798;2023-05-07T06:44:19;19.90;;;16.65;;
35126;SDS011;21300;52.006;5.798;2023-05-07T06:46:45;19.80;;;17.10;;
35126;SDS011;21300;52.006;5.798;2023-05-07T06:49:12;21.67;;;17.30;;
35126;SDS011;21300;52.006;5.798;2023-05-07T06:51:38;19.08;;;17.08;;
35126;SDS011;21300;52.006;5.798;2023-05-07T06:54:03;18.48;;;16.52;;
35126;SDS011;21300;52.006;5.798;2023-05-07T06:56:29;18.70;;;16.80;;
35126;SDS011;21300;52.006;5.798;2023-05-07T06:58:55;21.23;;;17.42;;
35126;SDS011;21300;52.006;5.798;2023-05-07T07:01:21;20.50;;;17.95;;
35126;SDS011;21300;52.006;5.798;2023-05-07T07:03:47;20.52;;;18.10;;
35126;SDS011;21300;52.006;5.798;2023-05-07T07:06:12;20.13;;;17.92;;
35126;SDS011;21300;52.006;5.798;2023-05-07T07:08:38;20.10;;;17.42;;
35126;SDS011;21300;52.006;5.798;2023-05-07T07:11:04;21.52;;;18.13;;
35126;SDS011;21300;52.006;5.798;2023-05-07T07:13:30;21.42;;;19.10;;
35126;SDS011;21300;52.006;5.798;2023-05-07T07:15:55;21.73;;;19.42;;
35126;SDS011;21300;52.006;5.798;2023-05-07T07:18:21;22.65;;;19.60;;
35126;SDS011;21300;52.006;5.798;2023-05-07T07:20:47;22.60;;;19.40;;
35126;SDS011;21300;52.006;5.798;2023-05-07T07:23:13;21.92;;;19.08;;
35126;SDS011;21300;52.006;5.798;2023-05-07T07:25:39;21.80;;;19.00;;
35126;SDS011;21300;52.006;5.798;2023-05-07T07:28:05;24.33;;;21.17;;
35126;SDS011;21300;52.006;5.798;2023-05-07T07:30:30;25.23;;;21.13;;
35126;SDS011;21300;52.006;5.798;2023-05-07T07:32:56;23.73;;;21.20;;
35126;SDS011;21300;52.006;5.798;2023-05-07T07:35:40;25.50;;;22.15;;
35126;SDS011;21300;52.006;5.798;2023-05-07T07:38:06;25.45;;;22.08;;
35126;SDS011;21300;52.006;5.798;2023-05-07T07:40:34;25.85;;;22.58;;
35126;SDS011;21300;52.006;5.798;2023-05-07T07:43:00;27.20;;;23.25;;
35126;SDS011;21300;52.006;5.798;2023-05-07T07:45:26;31.20;;;23.13;;
35126;SDS011;21300;52.006;5.798;2023-05-07T07:47:52;26.45;;;22.98;;
35126;SDS011;21300;52.006;5.798;2023-05-07T07:50:17;26.13;;;21.83;;
35126;SDS011;21300;52.006;5.798;2023-05-07T07:52:43;24.92;;;22.25;;
35126;SDS011;21300;52.006;5.798;2023-05-07T07:55:09;24.90;;;21.95;;
35126;SDS011;21300;52.006;5.798;2023-05-07T07:57:35;26.55;;;23.77;;
35126;SDS011;21300;52.006;5.798;2023-05-07T08:00:00;25.65;;;22.83;;
35126;SDS011;21300;52.006;5.798;2023-05-07T08:02:26;26.38;;;22.10;;
35126;SDS011;21300;52.006;5.798;2023-05-07T08:04:52;24.17;;;20.65;;
35126;SDS011;21300;52.006;5.798;2023-05-07T08:07:17;25.38;;;20.73;;
35126;SDS011;21300;52.006;5.798;2023-05-07T08:09:45;23.98;;;19.77;;
35126;SDS011;21300;52.006;5.798;2023-05-07T08:12:11;23.92;;;20.85;;
35126;SDS011;21300;52.006;5.798;2023-05-07T08:14:37;24.33;;;19.65;;
35126;SDS011;21300;52.006;5.798;2023-05-07T08:17:03;23.42;;;19.75;;
35126;SDS011;21300;52.006;5.798;2023-05-07T08:19:29;23.70;;;19.33;;
35126;SDS011;21300;52.006;5.798;2023-05-07T08:21:55;24.25;;;19.70;;
35126;SDS011;21300;52.006;5.798;2023-05-07T08:24:20;23.67;;;19.45;;
35126;SDS011;21300;52.006;5.798;2023-05-07T08:26:47;24.70;;;20.52;;
35126;SDS011;21300;52.006;5.798;2023-05-07T08:29:13;26.02;;;20.42;;
35126;SDS011;21300;52.006;5.798;2023-05-07T08:31:38;23.02;;;19.02;;
35126;SDS011;21300;52.006;5.798;2023-05-07T08:34:04;24.80;;;19.27;;
35126;SDS011;21300;52.006;5.798;2023-05-07T08:36:31;23.25;;;19.55;;
35126;SDS011;21300;52.006;5.798;2023-05-07T08:38:57;21.90;;;19.38;;
35126;SDS011;21300;52.006;5.798;2023-05-07T08:41:22;23.60;;;19.58;;
35126;SDS011;21300;52.006;5.798;2023-05-07T08:43:49;24.05;;;20.38;;
35126;SDS011;21300;52.006;5.798;2023-05-07T08:46:17;24.63;;;18.75;;
35126;SDS011;21300;52.006;5.798;2023-05-07T08:48:44;23.73;;;19.48;;
35126;SDS011;21300;52.006;5.798;2023-05-07T08:51:13;27.55;;;19.90;;
35126;SDS011;21300;52.006;5.798;2023-05-07T08:53:41;23.77;;;18.23;;
35126;SDS011;21300;52.006;5.798;2023-05-07T08:56:08;20.73;;;17.38;;
35126;SDS011;21300;52.006;5.798;2023-05-07T08:58:34;20.80;;;17.15;;
35126;SDS011;21300;52.006;5.798;2023-05-07T09:01:01;21.27;;;17.02;;
35126;SDS011;21300;52.006;5.798;2023-05-07T09:03:32;22.00;;;16.92;;
35126;SDS011;21300;52.006;5.798;2023-05-07T09:05:58;19.45;;;15.27;;
35126;SDS011;21300;52.006;5.798;2023-05-07T09:08:44;19.20;;;14.80;;
35126;SDS011;21300;52.006;5.798;2023-05-07T09:11:15;18.13;;;14.45;;
35126;SDS011;21300;52.006;5.798;2023-05-07T09:13:41;18.00;;;13.93;;
35126;SDS011;21300;52.006;5.798;2023-05-07T09:16:11;20.98;;;14.25;;
35126;SDS011;21300;52.006;5.798;2023-05-07T09:18:43;18.13;;;13.80;;
35126;SDS011;21300;52.006;5.798;2023-05-07T09:21:14;15.90;;;12.68;;
35126;SDS011;21300;52.006;5.798;2023-05-07T09:23:41;15.55;;;12.60;;
35126;SDS011;21300;52.006;5.798;2023-05-07T09:26:07;13.90;;;11.82;;
35126;SDS011;21300;52.006;5.798;2023-05-07T09:28:38;14.73;;;11.13;;
35126;SDS011;21300;52.006;5.798;2023-05-07T09:31:05;15.80;;;11.77;;
35126;SDS011;21300;52.006;5.798;2023-05-07T09:33:30;13.95;;;10.75;;
35126;SDS011;21300;52.006;5.798;2023-05-07T09:35:56;16.50;;;12.13;;
35126;SDS011;21300;52.006;5.798;2023-05-07T09:38:22;15.82;;;12.05;;
35126;SDS011;21300;52.006;5.798;2023-05-07T09:40:47;16.50;;;12.43;;
35126;SDS011;21300;52.006;5.798;2023-05-07T09:43:31;15.98;;;12.30;;
35126;SDS011;21300;52.006;5.798;2023-05-07T09:46:05;16.60;;;11.20;;
35126;SDS011;21300;52.006;5.798;2023-05-07T09:48:39;16.50;;;11.75;;
35126;SDS011;21300;52.006;5.798;2023-05-07T09:51:52;16.23;;;10.15;;
35126;SDS011;21300;52.006;5.798;2023-05-07T09:53:53;12.77;;;9.15;;
35126;SDS011;21300;52.006;5.798;2023-05-07T09:56:19;14.30;;;9.38;;
35126;SDS011;21300;52.006;5.798;2023-05-07T09:58:46;11.95;;;8.00;;
35126;SDS011;21300;52.006;5.798;2023-05-07T10:01:12;12.93;;;8.73;;
35126;SDS011;21300;52.006;5.798;2023-05-07T10:03:39;11.35;;;7.90;;
35126;SDS011;21300;52.006;5.798;2023-05-07T10:06:07;14.02;;;8.25;;
35126;SDS011;21300;52.006;5.798;2023-05-07T10:08:34;10.32;;;7.07;;
35126;SDS011;21300;52.006;5.798;2023-05-07T10:11:02;12.38;;;7.32;;
35126;SDS011;21300;52.006;5.798;2023-05-07T10:13:29;9.88;;;7.30;;
35126;SDS011;21300;52.006;5.798;2023-05-07T10:15:54;11.40;;;7.93;;
35126;SDS011;21300;52.006;5.798;2023-05-07T10:18:20;11.43;;;7.32;;
35126;SDS011;21300;52.006;5.798;2023-05-07T10:20:54;11.20;;;8.43;;
35126;SDS011;21300;52.006;5.798;2023-05-07T10:23:23;11.45;;;8.32;;
35126;SDS011;21300;52.006;5.798;2023-05-07T10:25:51;11.73;;;8.02;;
35126;SDS011;21300;52.006;5.798;2023-05-07T10:28:18;13.90;;;8.20;;
35126;SDS011;21300;52.006;5.798;2023-05-07T10:33:43;11.35;;;8.23;;
35126;SDS011;21300;52.006;5.798;2023-05-07T10:36:11;10.57;;;7.88;;
35126;SDS011;21300;52.006;5.798;2023-05-07T10:38:37;12.25;;;8.85;;
35126;SDS011;21300;52.006;5.798;2023-05-07T10:41:03;12.27;;;8.43;;
35126;SDS011;21300;52.006;5.798;2023-05-07T10:43:43;9.73;;;7.40;;
35126;SDS011;21300;52.006;5.798;2023-05-07T10:46:18;10.30;;;8.20;;
35126;SDS011;21300;52.006;5.798;2023-05-07T10:51:26;10.23;;;7.57;;
35126;SDS011;21300;52.006;5.798;2023-05-07T10:56:42;7.53;;;6.47;;
35126;SDS011;21300;52.006;5.798;2023-05-07T11:01:50;7.88;;;5.47;;
35126;SDS011;21300;52.006;5.798;2023-05-07T11:04:19;8.18;;;5.72;;
35126;SDS011;21300;52.006;5.798;2023-05-07T11:15:04;10.93;;;8.10;;
35126;SDS011;21300;52.006;5.798;2023-05-07T11:17:32;9.23;;;6.20;;
35126;SDS011;21300;52.006;5.798;2023-05-07T11:19:59;11.07;;;8.75;;
35126;SDS011;21300;52.006;5.798;2023-05-07T11:25:04;8.88;;;5.97;;
35126;SDS011;21300;52.006;5.798;2023-05-07T11:27:30;11.95;;;9.20;;
35126;SDS011;21300;52.006;5.798;2023-05-07T11:29:56;9.55;;;7.50;;
35126;SDS011;21300;52.006;5.798;2023-05-07T11:32:23;10.15;;;8.55;;
35126;SDS011;21300;52.006;5.798;2023-05-07T11:34:52;12.80;;;9.18;;
35126;SDS011;21300;52.006;5.798;2023-05-07T11:37:19;11.45;;;9.70;;
35126;SDS011;21300;52.006;5.798;2023-05-07T11:39:45;12.45;;;10.07;;
35126;SDS011;21300;52.006;5.798;2023-05-07T11:42:30;11.60;;;9.95;;
35126;SDS011;21300;52.006;5.798;2023-05-07T11:44:59;13.27;;;10.20;;
35126;SDS011;21300;52.006;5.798;2023-05-07T11:47:25;10.70;;;9.10;;
35126;SDS011;21300;52.006;5.798;2023-05-07T11:49:54;11.18;;;8.77;;
35126;SDS011;21300;52.006;5.798;2023-05-07T11:52:21;12.45;;;10.30;;
35126;SDS011;21300;52.006;5.798;2023-05-07T11:54:54;11.43;;;10.30;;
35126;SDS011;21300;52.006;5.798;2023-05-07T11:57:21;12.75;;;11.10;;
35126;SDS011;21300;52.006;5.798;2023-05-07T11:59:48;12.90;;;10.52;;
35126;SDS011;21300;52.006;5.798;2023-05-07T12:02:21;11.73;;;10.48;;
35126;SDS011;21300;52.006;5.798;2023-05-07T12:04:47;11.38;;;8.80;;
35126;SDS011;21300;52.006;5.798;2023-05-07T12:07:13;11.95;;;9.98;;
35126;SDS011;21300;52.006;5.798;2023-05-07T12:09:43;14.07;;;10.82;;
35126;SDS011;21300;52.006;5.798;2023-05-07T12:12:09;12.95;;;10.35;;
35126;SDS011;21300;52.006;5.798;2023-05-07T12:14:42;12.73;;;9.18;;
35126;SDS011;21300;52.006;5.798;2023-05-07T12:17:08;13.85;;;11.55;;
35126;SDS011;21300;52.006;5.798;2023-05-07T12:19:36;13.13;;;10.90;;
35126;SDS011;21300;52.006;5.798;2023-05-07T12:22:03;14.68;;;12.25;;
35126;SDS011;21300;52.006;5.798;2023-05-07T12:24:30;12.18;;;9.98;;
35126;SDS011;21300;52.006;5.798;2023-05-07T12:27:10;14.65;;;12.55;;
35126;SDS011;21300;52.006;5.798;2023-05-07T12:29:36;14.90;;;13.02;;
35126;SDS011;21300;52.006;5.798;2023-05-07T12:32:05;14.55;;;13.07;;
35126;SDS011;21300;52.006;5.798;2023-05-07T12:34:31;14.80;;;12.77;;
35126;SDS011;21300;52.006;5.798;2023-05-07T12:36:57;15.48;;;12.43;;
35126;SDS011;21300;52.006;5.798;2023-05-07T12:39:27;17.88;;;13.00;;
35126;SDS011;21300;52.006;5.798;2023-05-07T12:41:56;13.85;;;12.38;;
35126;SDS011;21300;52.006;5.798;2023-05-07T12:44:28;14.07;;;12.38;;
35126;SDS011;21300;52.006;5.798;2023-05-07T12:46:55;13.88;;;12.32;;
35126;SDS011;21300;52.006;5.798;2023-05-07T12:49:22;12.20;;;11.00;;
35126;SDS011;21300;52.006;5.798;2023-05-07T12:51:48;16.20;;;10.98;;
35126;SDS011;21300;52.006;5.798;2023-05-07T12:54:30;12.68;;;11.38;;
35126;SDS011;21300;52.006;5.798;2023-05-07T12:57:03;14.63;;;13.07;;
35126;SDS011;21300;52.006;5.798;2023-05-07T12:59:35;12.60;;;11.30;;
35126;SDS011;21300;52.006;5.798;2023-05-07T13:02:02;12.70;;;10.32;;
35126;SDS011;21300;52.006;5.798;2023-05-07T13:04:28;13.45;;;9.82;;
35126;SDS011;21300;52.006;5.798;2023-05-07T13:06:53;11.27;;;10.18;;
35126;SDS011;21300;52.006;5.798;2023-05-07T13:09:19;12.68;;;9.57;;
35126;SDS011;21300;52.006;5.798;2023-05-07T13:11:45;10.75;;;9.57;;
35126;SDS011;21300;52.006;5.798;2023-05-07T13:14:10;9.90;;;8.45;;
35126;SDS011;21300;52.006;5.798;2023-05-07T13:16:36;10.57;;;9.48;;
35126;SDS011;21300;52.006;5.798;2023-05-07T13:19:02;10.65;;;8.93;;
35126;SDS011;21300;52.006;5.798;2023-05-07T13:21:27;10.20;;;7.35;;
35126;SDS011;21300;52.006;5.798;2023-05-07T13:23:53;9.30;;;7.35;;
35126;SDS011;21300;52.006;5.798;2023-05-07T13:26:19;8.55;;;6.05;;
35126;SDS011;21300;52.006;5.798;2023-05-07T13:28:45;12.32;;;8.82;;
35126;SDS011;21300;52.006;5.798;2023-05-07T13:31:11;11.85;;;9.65;;
35126;SDS011;21300;52.006;5.798;2023-05-07T13:33:37;10.30;;;8.50;;
35126;SDS011;21300;52.006;5.798;2023-05-07T13:36:03;10.85;;;7.50;;
35126;SDS011;21300;52.006;5.798;2023-05-07T13:38:30;11.93;;;7.65;;
35126;SDS011;21300;52.006;5.798;2023-05-07T13:40:56;10.65;;;7.70;;
35126;SDS011;21300;52.006;5.798;2023-05-07T13:43:21;11.55;;;8.98;;
35126;SDS011;21300;52.006;5.798;2023-05-07T13:45:47;11.25;;;7.75;;
35126;SDS011;21300;52.006;5.798;2023-05-07T13:48:13;11.70;;;8.40;;
35126;SDS011;21300;52.006;5.798;2023-05-07T13:50:38;10.43;;;9.18;;
35126;SDS011;21300;52.006;5.798;2023-05-07T13:53:04;12.10;;;9.35;;
35126;SDS011;21300;52.006;5.798;2023-05-07T13:55:30;10.57;;;9.13;;
35126;SDS011;21300;52.006;5.798;2023-05-07T13:57:56;12.05;;;9.18;;
35126;SDS011;21300;52.006;5.798;2023-05-07T14:00:23;11.82;;;9.15;;
35126;SDS011;21300;52.006;5.798;2023-05-07T14:02:49;16.35;;;8.32;;
35126;SDS011;21300;52.006;5.798;2023-05-07T14:05:15;11.25;;;7.85;;
35126;SDS011;21300;52.006;5.798;2023-05-07T14:07:40;9.23;;;8.05;;
35126;SDS011;21300;52.006;5.798;2023-05-07T14:10:06;10.35;;;8.30;;
35126;SDS011;21300;52.006;5.798;2023-05-07T14:12:32;11.07;;;8.23;;
35126;SDS011;21300;52.006;5.798;2023-05-07T14:14:58;8.52;;;6.97;;
35126;SDS011;21300;52.006;5.798;2023-05-07T14:17:24;9.88;;;8.13;;
35126;SDS011;21300;52.006;5.798;2023-05-07T14:19:52;12.23;;;8.23;;
35126;SDS011;21300;52.006;5.798;2023-05-07T14:22:21;8.88;;;7.95;;
35126;SDS011;21300;52.006;5.798;2023-05-07T14:24:48;9.07;;;7.10;;
35126;SDS011;21300;52.006;5.798;2023-05-07T14:27:14;10.25;;;7.63;;
35126;SDS011;21300;52.006;5.798;2023-05-07T14:29:40;12.70;;;7.75;;
35126;SDS011;21300;52.006;5.798;2023-05-07T14:32:06;8.70;;;7.35;;
35126;SDS011;21300;52.006;5.798;2023-05-07T14:34:31;7.43;;;6.63;;
35126;SDS011;21300;52.006;5.798;2023-05-07T14:36:57;10.90;;;7.78;;
35126;SDS011;21300;52.006;5.798;2023-05-07T14:39:24;9.52;;;7.30;;
35126;SDS011;21300;52.006;5.798;2023-05-07T14:41:50;9.88;;;7.72;;
35126;SDS011;21300;52.006;5.798;2023-05-07T14:44:16;8.77;;;7.45;;
35126;SDS011;21300;52.006;5.798;2023-05-07T14:46:42;8.75;;;6.90;;
35126;SDS011;21300;52.006;5.798;2023-05-07T14:49:07;10.15;;;7.43;;
35126;SDS011;21300;52.006;5.798;2023-05-07T14:51:41;9.63;;;6.88;;